createdAt,value
2022-12-23T00:00:18.164Z,99162.16
2022-12-23T00:01:16.552Z,99161.47
2022-12-23T00:01:56.203Z,99154.53
2022-12-23T00:02:44.349Z,99160.47
2022-12-23T00:03:39.304Z,99167.97
2022-12-23T00:04:33.163Z,99166.97
2022-12-23T00:05:30.182Z,99160.22
2022-12-23T00:06:30.159Z,99167.97
2022-12-23T00:07:24.103Z,99160.38
2022-12-23T00:08:05.178Z,99145.09
2022-12-23T00:08:46.924Z,99166.63
2022-12-23T00:09:28.207Z,99162.94
2022-12-23T00:10:08.217Z,99151.91
2022-12-23T00:10:49.128Z,99157.88
2022-12-23T00:11:30.229Z,99169.75
2022-12-23T00:12:29.122Z,99161.84
2022-12-23T00:13:34.297Z,99150.66
2022-12-23T00:14:47.092Z,99140.59
2022-12-23T00:15:41.133Z,99155.06
2022-12-23T00:16:35.363Z,99149.25
2022-12-23T00:17:30.122Z,99147.41
2022-12-23T00:18:24.163Z,99145.97
2022-12-23T00:19:05.132Z,99151.63
2022-12-23T00:19:45.168Z,99151.09
2022-12-23T00:20:26.133Z,99140.59
2022-12-23T00:21:15.402Z,99157.00
2022-12-23T00:21:56.092Z,99144.03
2022-12-23T00:22:54.725Z,99137.06
2022-12-23T00:23:36.159Z,99162.56
2022-12-23T00:24:23.130Z,99153.34
2022-12-23T00:25:18.109Z,99164.97
2022-12-23T00:26:12.107Z,99148.84
2022-12-23T00:27:06.138Z,99164.53
2022-12-23T00:28:11.130Z,99150.22
2022-12-23T00:29:06.120Z,99160.94
2022-12-23T00:29:47.194Z,99151.50
2022-12-23T00:30:27.311Z,99159.28
2022-12-23T00:31:12.158Z,99157.88
2022-12-23T00:31:52.405Z,99148.53
2022-12-23T00:32:33.125Z,99139.19
2022-12-23T00:33:14.306Z,99163.53
2022-12-23T00:33:57.277Z,99166.31
2022-12-23T00:34:38.339Z,99160.69
2022-12-23T00:35:18.115Z,99163.94
2022-12-23T00:35:59.274Z,99166.31
2022-12-23T00:36:40.181Z,99166.88
2022-12-23T00:37:20.199Z,99167.72
2022-12-23T00:38:00.137Z,99181.16
2022-12-23T00:38:59.825Z,99165.03
2022-12-23T00:40:05.858Z,99180.41
2022-12-23T00:41:06.095Z,99179.56
2022-12-23T00:41:58.788Z,99172.75
2022-12-23T00:43:01.093Z,99176.03
2022-12-23T00:43:35.161Z,99159.19
2022-12-23T00:44:22.128Z,99174.03
2022-12-23T00:45:15.388Z,99176.72
2022-12-23T00:46:02.126Z,99173.34
2022-12-23T00:46:43.096Z,99173.91
2022-12-23T00:47:59.053Z,99175.88
2022-12-23T00:49:11.108Z,99148.34
2022-12-23T00:50:05.084Z,99172.19
2022-12-23T00:50:59.111Z,99177.56
2022-12-23T00:51:54.116Z,99165.97
2022-12-23T00:52:48.071Z,99169.97
2022-12-23T00:53:42.060Z,99171.81
2022-12-23T00:54:38.129Z,99169.13
2022-12-23T00:55:32.081Z,99163.75
2022-12-23T00:56:26.091Z,99176.47
2022-12-23T00:57:14.134Z,99170.66
2022-12-23T00:57:48.144Z,99171.50
2022-12-23T00:58:36.068Z,99157.38
2022-12-23T00:59:10.148Z,99176.63
2022-12-23T00:59:57.059Z,99178.47
2022-12-23T01:00:49.895Z,99173.66
2022-12-23T01:01:56.203Z,99174.81
2022-12-23T01:02:55.169Z,99170.69
2022-12-23T01:04:07.159Z,99176.78
2022-12-23T01:05:19.099Z,99173.63
2022-12-23T01:06:15.065Z,99165.78
2022-12-23T01:07:10.060Z,99165.03
2022-12-23T01:08:05.090Z,99159.47
2022-12-23T01:09:00.068Z,99163.44
2022-12-23T01:09:54.081Z,99166.31
2022-12-23T01:10:53.073Z,99165.91
2022-12-23T01:11:47.047Z,99160.09
2022-12-23T01:12:41.067Z,99160.94
2022-12-23T01:13:29.058Z,99163.75
2022-12-23T01:14:03.200Z,99171.97
2022-12-23T01:14:50.081Z,99171.97
2022-12-23T01:15:24.256Z,99165.69
2022-12-23T01:16:17.604Z,99163.50
2022-12-23T01:16:52.162Z,99170.84
2022-12-23T01:17:40.079Z,99166.72
2022-12-23T01:18:14.134Z,99162.59
2022-12-23T01:18:55.066Z,99163.34
2022-12-23T01:19:36.131Z,99163.75
2022-12-23T01:20:17.040Z,99158.63
2022-12-23T01:20:57.192Z,99158.53
2022-12-23T01:21:38.061Z,99168.38
2022-12-23T01:22:18.236Z,99165.44
2022-12-23T01:22:59.063Z,99158.91
2022-12-23T01:23:40.231Z,99156.34
2022-12-23T01:24:21.110Z,99163.31
2022-12-23T01:25:01.229Z,99153.84
2022-12-23T01:25:41.042Z,99160.38
2022-12-23T01:26:22.126Z,99169.41
2022-12-23T01:27:03.047Z,99179.72
2022-12-23T01:27:43.209Z,99167.97
2022-12-23T01:28:23.042Z,99153.00
2022-12-23T01:29:04.184Z,99170.22
2022-12-23T01:29:45.067Z,99165.03
2022-12-23T01:30:25.137Z,99169.13
2022-12-23T01:31:08.069Z,99169.41
2022-12-23T01:31:48.360Z,99167.97
2022-12-23T01:32:28.039Z,99158.94
2022-12-23T01:33:08.140Z,99164.31
2022-12-23T01:33:49.069Z,99153.31
2022-12-23T01:34:36.366Z,99156.88
2022-12-23T01:35:17.085Z,99165.47
2022-12-23T01:35:58.089Z,99141.13
2022-12-23T01:36:38.030Z,99160.06
2022-12-23T01:37:18.094Z,99149.47
2022-12-23T01:37:58.062Z,99166.88
2022-12-23T01:38:38.122Z,99165.72
2022-12-23T01:39:18.018Z,99150.75
2022-12-23T01:39:58.092Z,99153.00
2022-12-23T01:40:49.041Z,99150.63
2022-12-23T01:41:54.539Z,99160.78
2022-12-23T01:42:53.056Z,99149.56
2022-12-23T01:43:56.094Z,99147.03
2022-12-23T01:44:58.036Z,99139.72
2022-12-23T01:45:40.083Z,99145.69
2022-12-23T01:46:20.072Z,99147.81
2022-12-23T01:47:00.098Z,99140.31
2022-12-23T01:48:05.046Z,99144.84
2022-12-23T01:48:46.090Z,99144.00
2022-12-23T01:49:26.020Z,99138.28
2022-12-23T01:50:13.153Z,99152.75
2022-12-23T01:51:07.010Z,99144.53
2022-12-23T01:51:47.071Z,99146.25
2022-12-23T01:52:22.096Z,99139.31
2022-12-23T01:53:22.032Z,99139.72
2022-12-23T01:54:01.107Z,99136.91
2022-12-23T01:54:49.038Z,99127.31
2022-12-23T01:55:28.208Z,99122.75
2022-12-23T01:56:41.012Z,99118.53
2022-12-23T01:57:22.074Z,99133.69
2022-12-23T01:58:27.018Z,99127.03
2022-12-23T01:59:44.000Z,99130.56
2022-12-23T02:00:56.047Z,99130.69
2022-12-23T02:02:14.100Z,99126.59
2022-12-23T02:03:14.055Z,99129.72
2022-12-23T02:03:57.063Z,99131.84
2022-12-23T02:04:36.984Z,99132.69
2022-12-23T02:05:17.047Z,99129.28
2022-12-23T02:05:58.991Z,99133.81
2022-12-23T02:07:04.668Z,99122.25
2022-12-23T02:08:03.992Z,99114.88
2022-12-23T02:09:05.084Z,99126.91
2022-12-23T02:09:45.093Z,99124.63
2022-12-23T02:10:43.006Z,99130.00
2022-12-23T02:12:04.093Z,99128.03
2022-12-23T02:13:06.028Z,99116.00
2022-12-23T02:14:19.050Z,99123.63
2022-12-23T02:15:54.978Z,99128.88
2022-12-23T02:16:56.045Z,99129.84
2022-12-23T02:18:11.094Z,99130.16
2022-12-23T02:19:27.055Z,99129.44
2022-12-23T02:21:02.985Z,99132.56
2022-12-23T02:22:39.008Z,99135.53
2022-12-23T02:24:00.976Z,99135.81
2022-12-23T02:25:17.997Z,99129.75
2022-12-23T02:26:07.187Z,99130.44
2022-12-23T02:27:24.985Z,99120.25
2022-12-23T02:28:36.094Z,99132.28
2022-12-23T02:29:58.992Z,99132.44
2022-12-23T02:31:17.019Z,99122.69
2022-12-23T02:32:21.992Z,99097.88
2022-12-23T02:33:53.017Z,99126.75
2022-12-23T02:35:00.979Z,99132.44
2022-12-23T02:36:33.019Z,99122.81
2022-12-23T02:37:42.960Z,99118.03
2022-12-23T02:38:46.966Z,99115.06
2022-12-23T02:40:14.980Z,99116.31
2022-12-23T02:41:42.007Z,99120.53
2022-12-23T02:42:53.086Z,99121.25
2022-12-23T02:43:56.956Z,99123.22
2022-12-23T02:44:49.353Z,99109.22
2022-12-23T02:45:44.018Z,99114.47
2022-12-23T02:46:53.003Z,99108.66
2022-12-23T02:48:05.930Z,99111.09
2022-12-23T02:49:05.953Z,99125.66
2022-12-23T02:50:14.965Z,99124.81
2022-12-23T02:51:10.939Z,99123.97
2022-12-23T02:52:09.005Z,99121.25
2022-12-23T02:53:03.982Z,99120.09
2022-12-23T02:54:05.944Z,99123.53
2022-12-23T02:55:06.989Z,99119.66
2022-12-23T02:56:02.972Z,99117.41
2022-12-23T02:56:59.947Z,99126.59
2022-12-23T02:57:44.997Z,99120.66
2022-12-23T02:58:30.127Z,99122.66
2022-12-23T02:59:24.991Z,99128.72
2022-12-23T03:00:07.184Z,99125.34
2022-12-23T03:00:48.982Z,99108.34
2022-12-23T03:01:31.442Z,99123.78
2022-12-23T03:02:12.131Z,99119.25
2022-12-23T03:02:59.100Z,99102.41
2022-12-23T03:03:54.067Z,99118.41
2022-12-23T03:04:48.958Z,99104.28
2022-12-23T03:06:02.959Z,99105.53
2022-12-23T03:07:08.102Z,99111.34
2022-12-23T03:08:02.991Z,99114.63
2022-12-23T03:08:57.941Z,99116.88
2022-12-23T03:10:03.933Z,99112.78
2022-12-23T03:11:23.955Z,99115.47
2022-12-23T03:13:06.976Z,99122.94
2022-12-23T03:14:28.940Z,99121.66
2022-12-23T03:16:03.973Z,99121.53
2022-12-23T03:17:21.929Z,99115.41
2022-12-23T03:19:00.964Z,99121.78
2022-12-23T03:20:05.961Z,99115.41
2022-12-23T03:21:35.933Z,99117.81
2022-12-23T03:23:10.919Z,99126.28
2022-12-23T03:24:15.938Z,99098.97
2022-12-23T03:25:31.944Z,99104.34
2022-12-23T03:26:32.958Z,99121.03
2022-12-23T03:27:45.924Z,99130.88
2022-12-23T03:29:20.939Z,99116.50
2022-12-23T03:30:25.938Z,99113.38
2022-12-23T03:31:25.010Z,99115.09
2022-12-23T03:32:20.014Z,99122.28
2022-12-23T03:33:28.933Z,99119.84
2022-12-23T03:34:31.923Z,99116.19
2022-12-23T03:35:29.949Z,99103.03
2022-12-23T03:36:28.890Z,99111.88
2022-12-23T03:37:24.914Z,99109.66
2022-12-23T03:38:20.926Z,99110.25
2022-12-23T03:39:17.902Z,99111.25
2022-12-23T03:40:16.972Z,99101.34
2022-12-23T03:41:09.181Z,99098.34
2022-12-23T03:41:55.998Z,99115.06
2022-12-23T03:42:44.146Z,99113.63
2022-12-23T03:43:44.845Z,99106.78
2022-12-23T03:44:38.171Z,99115.31
2022-12-23T03:45:38.787Z,99108.13
2022-12-23T03:46:29.047Z,99097.94
2022-12-23T03:47:32.884Z,99107.94
2022-12-23T03:48:21.959Z,99114.91
2022-12-23T03:49:07.881Z,99119.59
2022-12-23T03:50:01.987Z,99096.97
2022-12-23T03:50:43.964Z,99114.47
2022-12-23T03:51:43.898Z,99106.16
2022-12-23T03:53:23.895Z,99098.94
2022-12-23T03:54:24.891Z,99106.88
2022-12-23T03:55:23.897Z,99105.19
2022-12-23T03:56:17.905Z,99119.03
2022-12-23T03:57:06.031Z,99093.59
2022-12-23T03:57:56.917Z,99101.50
2022-12-23T03:58:59.992Z,99112.81
2022-12-23T03:59:47.871Z,99100.94
2022-12-23T04:00:27.987Z,99102.09
2022-12-23T04:02:07.058Z,99094.69
2022-12-23T04:03:12.923Z,99108.13
2022-12-23T04:03:59.942Z,99108.22
2022-12-23T04:05:17.008Z,99088.16
2022-12-23T04:06:02.900Z,99096.34
2022-12-23T04:07:18.915Z,99090.63
2022-12-23T04:08:37.847Z,99089.63
2022-12-23T04:09:33.858Z,99093.00
2022-12-23T04:10:27.886Z,99095.88
2022-12-23T04:11:21.871Z,99099.56
2022-12-23T04:12:15.877Z,99093.63
2022-12-23T04:12:56.892Z,99092.09
2022-12-23T04:13:37.943Z,99096.19
2022-12-23T04:14:24.882Z,99097.44
2022-12-23T04:15:10.702Z,99096.75
2022-12-23T04:15:52.908Z,99101.28
2022-12-23T04:16:36.040Z,99099.84
2022-12-23T04:17:16.885Z,99096.75
2022-12-23T04:18:05.893Z,99094.06
2022-12-23T04:18:59.884Z,99106.34
2022-12-23T04:19:54.935Z,99105.94
2022-12-23T04:20:48.879Z,99099.56
2022-12-23T04:21:42.869Z,99106.34
2022-12-23T04:22:36.861Z,99101.25
2022-12-23T04:23:23.911Z,99104.06
2022-12-23T04:23:57.980Z,99098.72
2022-12-23T04:24:45.876Z,99102.66
2022-12-23T04:25:20.965Z,99100.94
2022-12-23T04:26:07.879Z,99104.81
2022-12-23T04:26:41.951Z,99096.31
2022-12-23T04:27:28.862Z,99093.63
2022-12-23T04:28:02.986Z,99101.25
2022-12-23T04:28:43.883Z,99090.94
2022-12-23T04:29:23.968Z,99095.47
2022-12-23T04:30:03.858Z,99098.44
2022-12-23T04:30:43.964Z,99094.72
2022-12-23T04:31:23.896Z,99084.28
2022-12-23T04:32:03.991Z,99090.94
2022-12-23T04:32:44.860Z,99087.09
2022-12-23T04:33:24.957Z,99101.50
2022-12-23T04:34:04.940Z,99099.25
2022-12-23T04:34:44.921Z,99104.38
2022-12-23T04:35:24.830Z,99093.84
2022-12-23T04:36:06.965Z,99102.94
2022-12-23T04:36:46.870Z,99084.06
2022-12-23T04:37:28.022Z,99099.66
2022-12-23T04:38:07.848Z,99086.75
2022-12-23T04:38:47.912Z,99104.34
2022-12-23T04:39:27.881Z,99109.66
2022-12-23T04:40:07.957Z,99111.31
2022-12-23T04:40:53.842Z,99112.72
2022-12-23T04:41:33.912Z,99114.69
2022-12-23T04:42:14.817Z,99100.16
2022-12-23T04:42:54.924Z,99092.63
2022-12-23T04:43:34.834Z,99083.88
2022-12-23T04:44:14.912Z,99102.84
2022-12-23T04:44:54.851Z,99095.31
2022-12-23T04:45:34.933Z,99099.19
2022-12-23T04:46:14.845Z,99103.75
2022-12-23T04:46:55.965Z,99089.31
2022-12-23T04:47:35.817Z,99085.03
2022-12-23T04:48:15.912Z,99093.16
2022-12-23T04:48:55.815Z,99099.81
2022-12-23T04:49:37.001Z,99084.25
2022-12-23T04:50:21.858Z,99086.38
2022-12-23T04:51:01.884Z,99094.19
2022-12-23T04:51:42.829Z,99096.13
2022-12-23T04:52:24.050Z,99099.00
2022-12-23T04:53:03.824Z,99094.06
2022-12-23T04:53:43.935Z,99096.56
2022-12-23T04:54:23.828Z,99097.56
2022-12-23T04:55:03.960Z,99096.03
2022-12-23T04:55:44.881Z,99084.59
2022-12-23T04:56:25.929Z,99090.94
2022-12-23T04:57:06.877Z,99080.47
2022-12-23T04:57:46.887Z,99078.06
2022-12-23T04:58:31.823Z,99090.81
2022-12-23T04:59:11.937Z,99098.16
2022-12-23T04:59:51.818Z,99082.31
2022-12-23T05:00:37.282Z,99081.47
2022-12-23T05:01:20.873Z,99092.22
2022-12-23T05:02:01.125Z,99079.66
2022-12-23T05:02:42.060Z,99076.13
2022-12-23T05:03:21.994Z,99087.16
2022-12-23T05:04:01.816Z,99076.41
2022-12-23T05:04:42.007Z,99087.84
2022-12-23T05:05:22.831Z,99076.41
2022-12-23T05:06:02.913Z,99084.59
2022-12-23T05:06:43.909Z,99081.91
2022-12-23T05:07:23.877Z,99068.50
2022-12-23T05:08:10.804Z,99066.66
2022-12-23T05:08:50.952Z,99080.53
2022-12-23T05:09:31.828Z,99066.38
2022-12-23T05:10:12.931Z,99074.88
2022-12-23T05:10:53.812Z,99072.19
2022-12-23T05:11:38.536Z,99079.13
2022-12-23T05:12:22.830Z,99082.09
2022-12-23T05:13:04.161Z,99070.19
2022-12-23T05:13:43.805Z,99092.28
2022-12-23T05:14:24.000Z,99082.34
2022-12-23T05:15:04.953Z,99083.94
2022-12-23T05:15:45.917Z,99064.53
2022-12-23T05:16:26.864Z,99071.03
2022-12-23T05:17:07.949Z,99081.53
2022-12-23T05:17:47.831Z,99081.22
2022-12-23T05:18:28.867Z,99072.03
2022-12-23T05:19:08.880Z,99060.00
2022-12-23T05:19:48.854Z,99076.16
2022-12-23T05:20:29.795Z,99074.00
2022-12-23T05:21:09.942Z,99069.63
2022-12-23T05:21:49.810Z,99073.59
2022-12-23T05:22:29.915Z,99075.28
2022-12-23T05:23:09.841Z,99062.28
2022-12-23T05:23:49.867Z,99066.81
2022-12-23T05:24:30.807Z,99072.03
2022-12-23T05:25:12.058Z,99072.75
2022-12-23T05:26:00.824Z,99059.75
2022-12-23T05:26:42.030Z,99062.28
2022-12-23T05:27:25.773Z,99073.88
2022-12-23T05:28:08.007Z,99082.66
2022-12-23T05:28:49.822Z,99079.13
2022-12-23T05:29:30.922Z,99071.91
2022-12-23T05:30:11.813Z,99065.69
2022-12-23T05:30:51.891Z,99076.69
2022-12-23T05:31:31.895Z,99078.69
2022-12-23T05:32:12.932Z,99083.22
2022-12-23T05:32:52.824Z,99075.31
2022-12-23T05:33:33.875Z,99078.00
2022-12-23T05:34:14.787Z,99073.59
2022-12-23T05:34:54.928Z,99031.34
2022-12-23T05:35:35.775Z,99081.38
2022-12-23T05:36:17.191Z,99078.44
2022-12-23T05:36:56.788Z,99075.00
2022-12-23T05:37:36.923Z,99057.75
2022-12-23T05:38:16.786Z,99074.59
2022-12-23T05:38:57.512Z,99069.38
2022-12-23T05:39:37.788Z,99074.59
2022-12-23T05:40:23.543Z,99069.38
2022-12-23T05:41:06.794Z,99064.97
2022-12-23T05:41:46.894Z,99066.53
2022-12-23T05:42:26.779Z,99068.78
2022-12-23T05:43:06.859Z,99067.38
2022-12-23T05:43:47.797Z,99050.13
2022-12-23T05:44:27.840Z,99037.09
2022-12-23T05:45:07.816Z,99059.31
2022-12-23T05:45:47.910Z,99048.97
2022-12-23T05:46:27.830Z,99051.25
2022-12-23T05:47:07.977Z,99059.47
2022-12-23T05:47:47.788Z,99052.38
2022-12-23T05:48:28.917Z,99059.16
2022-12-23T05:49:09.778Z,99054.94
2022-12-23T05:49:50.587Z,99054.78
2022-12-23T05:50:30.814Z,99057.19
2022-12-23T05:51:04.753Z,99053.94
2022-12-23T05:51:51.802Z,99048.84
2022-12-23T05:52:25.522Z,99051.25
2022-12-23T05:53:13.757Z,99047.72
2022-12-23T05:53:47.622Z,99048.84
2022-12-23T05:54:34.778Z,99041.91
2022-12-23T05:55:09.258Z,99037.69
2022-12-23T05:55:55.798Z,99038.81
2022-12-23T05:56:29.666Z,99056.91
2022-12-23T05:57:16.759Z,99044.19
2022-12-23T05:57:51.203Z,99052.09
2022-12-23T05:58:38.758Z,99050.81
2022-12-23T05:59:12.515Z,99048.72
2022-12-23T05:59:59.755Z,99041.06
2022-12-23T06:00:33.964Z,99046.16
2022-12-23T06:01:20.779Z,99043.22
2022-12-23T06:01:54.708Z,99045.31
2022-12-23T06:02:44.350Z,99031.19
2022-12-23T06:03:22.069Z,99044.19
2022-12-23T06:04:08.882Z,99046.75
2022-12-23T06:04:42.518Z,99046.16
2022-12-23T06:05:29.767Z,99042.78
2022-12-23T06:06:03.468Z,99045.88
2022-12-23T06:06:44.815Z,99053.25
2022-12-23T06:07:18.855Z,99050.56
2022-12-23T06:07:52.536Z,99046.16
2022-12-23T06:08:32.752Z,99041.78
2022-12-23T06:09:06.808Z,99040.66
2022-12-23T06:09:40.429Z,99039.09
2022-12-23T06:10:20.771Z,99046.44
2022-12-23T06:10:55.181Z,99046.88
2022-12-23T06:11:29.648Z,99042.78
2022-12-23T06:12:10.757Z,99048.44
2022-12-23T06:12:44.881Z,99057.78
2022-12-23T06:13:18.545Z,99054.09
2022-12-23T06:13:59.782Z,99045.88
2022-12-23T06:14:33.887Z,99058.03
2022-12-23T06:15:08.642Z,99044.47
2022-12-23T06:15:48.767Z,99046.72
2022-12-23T06:16:22.915Z,99027.50
2022-12-23T06:16:57.530Z,99045.88
2022-12-23T06:17:38.775Z,99042.03
2022-12-23T06:18:12.828Z,99045.16
2022-12-23T06:18:46.471Z,99051.38
2022-12-23T06:19:26.733Z,99039.50
2022-12-23T06:20:00.839Z,99053.50
2022-12-23T06:20:34.445Z,99039.34
2022-12-23T06:21:15.757Z,99046.31
2022-12-23T06:21:49.862Z,99041.94
2022-12-23T06:22:23.840Z,99047.59
2022-12-23T06:23:03.776Z,99048.00
2022-12-23T06:23:37.941Z,99051.81
2022-12-23T06:24:11.693Z,99039.06
2022-12-23T06:24:51.735Z,99041.63
2022-12-23T06:25:26.762Z,99038.63
2022-12-23T06:26:01.818Z,99043.63
2022-12-23T06:26:42.771Z,99047.00
2022-12-23T06:27:16.800Z,99036.81
2022-12-23T06:27:50.438Z,99043.31
2022-12-23T06:28:30.778Z,99043.88
2022-12-23T06:29:04.788Z,99052.25
2022-12-23T06:29:39.451Z,99045.56
2022-12-23T06:30:20.716Z,99041.19
2022-12-23T06:31:02.815Z,99045.88
2022-12-23T06:31:36.494Z,99041.63
2022-12-23T06:32:17.790Z,99042.63
2022-12-23T06:32:51.825Z,99040.19
2022-12-23T06:33:26.290Z,99040.50
2022-12-23T06:34:07.832Z,99041.09
2022-12-23T06:34:41.930Z,99039.09
2022-12-23T06:35:15.841Z,99029.63
2022-12-23T06:35:56.729Z,99043.03
2022-12-23T06:36:30.793Z,99034.00
2022-12-23T06:37:04.451Z,99018.00
2022-12-23T06:37:44.710Z,99045.75
2022-12-23T06:38:18.770Z,99018.59
2022-12-23T06:38:53.387Z,99041.63
2022-12-23T06:39:34.728Z,99043.88
2022-12-23T06:40:08.800Z,99047.31
2022-12-23T06:40:42.535Z,99045.56
2022-12-23T06:41:23.756Z,99045.56
2022-12-23T06:41:57.791Z,99034.69
2022-12-23T06:42:31.473Z,99049.38
2022-12-23T06:43:12.748Z,99046.44
2022-12-23T06:43:49.943Z,99046.69
2022-12-23T06:44:27.884Z,99047.72
2022-12-23T06:45:07.740Z,99041.06
2022-12-23T06:45:41.878Z,99045.56
2022-12-23T06:46:15.567Z,99042.19
2022-12-23T06:46:56.724Z,99042.63
2022-12-23T06:47:30.829Z,99039.66
2022-12-23T06:48:05.149Z,99030.31
2022-12-23T06:48:44.709Z,99041.94
2022-12-23T06:49:18.833Z,99044.31
2022-12-23T06:49:52.463Z,99042.78
2022-12-23T06:50:32.749Z,99037.94
2022-12-23T06:51:06.788Z,99034.00
2022-12-23T06:51:53.711Z,99040.22
2022-12-23T06:52:27.763Z,99044.63
2022-12-23T06:53:15.731Z,99048.00
2022-12-23T06:53:49.755Z,99042.50
2022-12-23T06:54:36.721Z,99039.38
2022-12-23T06:55:11.945Z,99034.00
2022-12-23T06:55:51.713Z,99039.94
2022-12-23T06:56:31.833Z,99037.69
2022-12-23T06:57:12.721Z,99010.25
2022-12-23T06:57:52.762Z,99030.06
2022-12-23T06:58:33.695Z,99024.69
2022-12-23T06:59:13.783Z,99041.22
2022-12-23T06:59:53.725Z,99037.53
2022-12-23T07:00:33.769Z,99042.19
2022-12-23T07:01:13.740Z,99027.22
2022-12-23T07:01:54.894Z,99033.75
2022-12-23T07:02:34.751Z,99031.16
2022-12-23T07:03:15.220Z,99027.22
2022-12-23T07:03:56.713Z,99026.94
2022-12-23T07:04:36.992Z,99040.38
2022-12-23T07:05:16.693Z,99038.81
2022-12-23T07:05:57.896Z,99034.13
2022-12-23T07:06:38.733Z,99030.75
2022-12-23T07:07:19.863Z,99027.50
2022-12-23T07:08:00.715Z,99035.44
2022-12-23T07:08:40.800Z,99036.41
2022-12-23T07:09:20.685Z,99030.63
2022-12-23T07:10:00.803Z,99015.91
2022-12-23T07:10:41.692Z,99024.66
2022-12-23T07:11:21.735Z,99039.38
2022-12-23T07:12:01.727Z,99035.44
2022-12-23T07:12:44.843Z,99030.03
2022-12-23T07:13:28.707Z,99036.53
2022-12-23T07:14:08.778Z,99032.88
2022-12-23T07:14:49.717Z,99035.97
2022-12-23T07:15:29.882Z,99028.47
2022-12-23T07:16:15.715Z,99031.47
2022-12-23T07:16:56.883Z,99038.69
2022-12-23T07:17:37.705Z,99035.25
2022-12-23T07:18:17.824Z,99038.25
2022-12-23T07:18:58.734Z,99041.19
2022-12-23T07:19:38.804Z,99045.44
2022-12-23T07:20:20.708Z,99033.44
2022-12-23T07:21:00.807Z,99046.84
2022-12-23T07:21:42.724Z,99040.78
2022-12-23T07:22:22.809Z,99044.16
2022-12-23T07:23:06.689Z,99047.44
2022-12-23T07:23:47.895Z,99050.38
2022-12-23T07:24:28.696Z,99045.56
2022-12-23T07:25:08.841Z,99042.31
2022-12-23T07:25:49.705Z,99037.25
2022-12-23T07:26:30.871Z,99042.44
2022-12-23T07:27:11.691Z,99037.78
2022-12-23T07:27:51.770Z,99050.94
2022-12-23T07:28:31.693Z,99046.69
2022-12-23T07:29:11.729Z,99032.25
2022-12-23T07:29:51.688Z,99039.59
2022-12-23T07:30:31.799Z,99046.66
2022-12-23T07:31:13.752Z,99047.53
2022-12-23T07:31:53.972Z,99049.25
2022-12-23T07:32:34.672Z,99037.06
2022-12-23T07:33:14.844Z,99053.91
2022-12-23T07:33:55.710Z,99057.13
2022-12-23T07:34:36.211Z,99050.78
2022-12-23T07:35:16.669Z,99047.09
2022-12-23T07:35:56.759Z,99045.41
2022-12-23T07:36:36.654Z,99057.00
2022-12-23T07:37:16.804Z,99056.72
2022-12-23T07:38:01.682Z,99045.13
2022-12-23T07:38:41.764Z,99051.78
2022-12-23T07:39:21.715Z,99052.03
2022-12-23T07:40:08.064Z,99043.69
2022-12-23T07:40:49.680Z,99047.81
2022-12-23T07:41:29.801Z,99044.84
2022-12-23T07:43:10.993Z,99046.56
2022-12-23T07:43:51.713Z,99041.31
2022-12-23T07:44:39.685Z,99044.44
2022-12-23T07:45:33.715Z,99043.28
2022-12-23T07:46:27.836Z,99032.25
2022-12-23T07:47:21.683Z,99026.03
2022-12-23T07:48:15.662Z,99046.09
2022-12-23T07:49:09.671Z,99019.66
2022-12-23T07:49:57.713Z,99041.56
2022-12-23T07:50:31.726Z,99039.88
2022-12-23T07:51:18.652Z,99037.31
2022-12-23T07:51:52.788Z,99024.25
2022-12-23T07:52:39.642Z,99035.34
2022-12-23T07:53:13.768Z,99031.34
2022-12-23T07:54:00.657Z,99021.34
2022-12-23T07:54:34.692Z,99032.41
2022-12-23T07:55:22.677Z,99018.66
2022-12-23T07:55:59.720Z,99018.41
2022-12-23T07:56:46.646Z,99032.00
2022-12-23T07:57:20.720Z,99023.22
2022-12-23T07:58:07.641Z,99028.03
2022-12-23T07:58:41.736Z,99020.13
2022-12-23T07:59:28.660Z,99018.72
2022-12-23T08:00:02.700Z,99024.66
2022-12-23T08:00:43.657Z,99011.66
2022-12-23T08:01:28.019Z,99014.16
2022-12-23T08:02:08.746Z,99022.09
2022-12-23T08:02:49.797Z,99022.66
2022-12-23T08:03:29.755Z,99003.72
2022-12-23T08:04:09.690Z,99015.31
2022-12-23T08:04:49.715Z,99026.06
2022-12-23T08:05:30.000Z,99020.41
2022-12-23T08:06:13.653Z,99018.84
2022-12-23T08:06:54.721Z,99029.44
2022-12-23T08:07:34.692Z,99007.97
2022-12-23T08:08:14.906Z,99019.56
2022-12-23T08:08:54.662Z,99027.06
2022-12-23T08:09:34.781Z,99010.22
2022-12-23T08:10:15.627Z,99014.59
2022-12-23T08:10:55.766Z,99022.53
2022-12-23T08:11:36.657Z,99023.78
2022-12-23T08:12:17.832Z,99023.22
2022-12-23T08:12:58.624Z,99022.94
2022-12-23T08:13:41.919Z,99017.44
2022-12-23T08:14:21.629Z,99019.53
2022-12-23T08:15:01.720Z,99022.50
2022-12-23T08:15:41.882Z,99021.44
2022-12-23T08:16:23.244Z,99008.19
2022-12-23T08:17:04.787Z,99026.34
2022-12-23T08:17:44.714Z,99015.59
2022-12-23T08:18:25.632Z,99019.56
2022-12-23T08:19:05.762Z,99015.31
2022-12-23T08:19:46.643Z,99011.09
2022-12-23T08:20:26.696Z,99015.91
2022-12-23T08:21:27.638Z,99011.66
2022-12-23T08:22:14.633Z,99011.50
2022-12-23T08:23:08.614Z,99008.81
2022-12-23T08:24:04.647Z,99005.72
2022-12-23T08:24:58.623Z,99013.34
2022-12-23T08:25:52.604Z,99019.16
2022-12-23T08:26:47.659Z,99002.03
2022-12-23T08:27:34.621Z,99014.91
2022-12-23T08:28:08.841Z,99013.66
2022-12-23T08:28:59.604Z,99012.09
2022-12-23T08:29:36.495Z,99010.50
2022-12-23T08:30:23.619Z,99015.88
2022-12-23T08:31:28.891Z,99005.28
2022-12-23T08:32:08.595Z,99016.59
2022-12-23T08:32:55.619Z,99020.56
2022-12-23T08:33:29.299Z,99015.91
2022-12-23T08:34:16.603Z,99016.75
2022-12-23T08:34:50.273Z,99020.84
2022-12-23T08:35:37.582Z,99008.53
2022-12-23T08:36:22.351Z,99009.66
2022-12-23T08:37:11.611Z,99020.28
2022-12-23T08:37:45.392Z,99022.13
2022-12-23T08:38:26.624Z,99020.56
2022-12-23T08:39:03.708Z,99018.59
2022-12-23T08:39:38.329Z,98991.00
2022-12-23T08:40:18.599Z,98993.13
2022-12-23T08:40:52.639Z,99009.69
2022-12-23T08:41:33.018Z,99010.81
2022-12-23T08:42:12.583Z,99014.47
2022-12-23T08:42:46.642Z,99011.66
2022-12-23T08:43:20.368Z,99019.00
2022-12-23T08:44:01.611Z,99009.09
2022-12-23T08:44:35.807Z,99004.88
2022-12-23T08:45:09.751Z,99014.34
2022-12-23T08:45:49.625Z,99008.56
2022-12-23T08:46:23.725Z,99006.28
2022-12-23T08:46:57.402Z,99007.72
2022-12-23T08:47:38.568Z,99009.97
2022-12-23T08:48:13.825Z,99008.25
2022-12-23T08:48:49.717Z,99011.91
2022-12-23T08:49:30.585Z,99000.03
2022-12-23T08:50:04.912Z,98991.81
2022-12-23T08:50:44.924Z,99014.91
2022-12-23T08:51:27.588Z,99009.66
2022-12-23T08:52:02.873Z,99000.06
2022-12-23T08:52:38.341Z,99003.44
2022-12-23T08:53:19.566Z,98992.72
2022-12-23T08:53:59.577Z,99001.19
2022-12-23T08:54:40.587Z,98995.13
2022-12-23T08:55:20.618Z,99000.06
2022-12-23T08:56:00.562Z,99000.09
2022-12-23T08:56:46.681Z,98995.41
2022-12-23T08:57:26.579Z,99000.63
2022-12-23T08:58:08.231Z,99003.16
2022-12-23T08:58:52.581Z,99000.63
2022-12-23T08:59:33.661Z,98998.66
2022-12-23T09:00:14.594Z,98996.66
2022-12-23T09:00:54.673Z,98996.66
2022-12-23T09:01:37.684Z,98995.84
2022-12-23T09:02:20.773Z,98989.88
2022-12-23T09:03:00.644Z,98984.25
2022-12-23T09:03:41.724Z,98990.72
2022-12-23T09:04:22.600Z,98999.78
2022-12-23T09:05:02.746Z,98995.41
2022-12-23T09:05:47.579Z,98993.84